sensor_id;sensor_type;location;lat;lon;timestamp;P1;durP1;ratioP1;P2;durP2;ratioP2
45686;SDS011;31399;51.176;7.776;2023-05-07T00:01:25;6.05;;;2.83;;
45686;SDS011;31399;51.176;7.776;2023-05-07T00:03:52;5.25;;;2.63;;
45686;SDS011;31399;51.176;7.776;2023-05-07T00:06:19;3.65;;;2.63;;
45686;SDS011;31399;51.176;7.776;2023-05-07T00:08:46;3.15;;;2.10;;
45686;SDS011;31399;51.176;7.776;2023-05-07T00:11:12;3.15;;;2.28;;
45686;SDS011;31399;51.176;7.776;2023-05-07T00:13:39;2.63;;;2.10;;
45686;SDS011;31399;51.176;7.776;2023-05-07T00:16:06;6.65;;;1.92;;
45686;SDS011;31399;51.176;7.776;2023-05-07T00:18:33;5.80;;;1.73;;
45686;SDS011;31399;51.176;7.776;2023-05-07T00:20:59;3.80;;;1.77;;
45686;SDS011;31399;51.176;7.776;2023-05-07T00:23:26;2.83;;;1.45;;
45686;SDS011;31399;51.176;7.776;2023-05-07T00:25:53;7.43;;;1.70;;
45686;SDS011;31399;51.176;7.776;2023-05-07T00:28:19;4.82;;;2.20;;
45686;SDS011;31399;51.176;7.776;2023-05-07T00:30:46;4.53;;;2.30;;
45686;SDS011;31399;51.176;7.776;2023-05-07T00:33:13;4.63;;;2.15;;
45686;SDS011;31399;51.176;7.776;2023-05-07T00:35:39;6.32;;;3.22;;
45686;SDS011;31399;51.176;7.776;2023-05-07T00:38:06;3.35;;;2.40;;
45686;SDS011;31399;51.176;7.776;2023-05-07T00:40:33;6.65;;;3.80;;
45686;SDS011;31399;51.176;7.776;2023-05-07T00:43:00;5.82;;;3.17;;
45686;SDS011;31399;51.176;7.776;2023-05-07T00:45:27;4.43;;;3.58;;
45686;SDS011;31399;51.176;7.776;2023-05-07T00:48:00;8.73;;;3.55;;
45686;SDS011;31399;51.176;7.776;2023-05-07T00:50:27;6.38;;;2.95;;
45686;SDS011;31399;51.176;7.776;2023-05-07T00:52:55;6.30;;;2.90;;
45686;SDS011;31399;51.176;7.776;2023-05-07T00:55:22;3.35;;;2.80;;
45686;SDS011;31399;51.176;7.776;2023-05-07T00:57:50;5.20;;;2.97;;
45686;SDS011;31399;51.176;7.776;2023-05-07T01:00:17;6.60;;;2.42;;
45686;SDS011;31399;51.176;7.776;2023-05-07T01:02:44;4.03;;;2.60;;
45686;SDS011;31399;51.176;7.776;2023-05-07T01:05:14;4.47;;;2.60;;
45686;SDS011;31399;51.176;7.776;2023-05-07T01:07:42;5.18;;;2.17;;
45686;SDS011;31399;51.176;7.776;2023-05-07T01:10:09;4.85;;;2.33;;
45686;SDS011;31399;51.176;7.776;2023-05-07T01:12:37;4.57;;;2.58;;
45686;SDS011;31399;51.176;7.776;2023-05-07T01:15:05;2.50;;;1.65;;
45686;SDS011;31399;51.176;7.776;2023-05-07T01:17:41;2.95;;;1.50;;
45686;SDS011;31399;51.176;7.776;2023-05-07T01:20:08;2.05;;;1.70;;
45686;SDS011;31399;51.176;7.776;2023-05-07T01:22:37;4.47;;;1.42;;
45686;SDS011;31399;51.176;7.776;2023-05-07T01:25:05;2.38;;;1.30;;
45686;SDS011;31399;51.176;7.776;2023-05-07T01:27:33;2.53;;;0.93;;
45686;SDS011;31399;51.176;7.776;2023-05-07T01:30:01;2.97;;;1.40;;
45686;SDS011;31399;51.176;7.776;2023-05-07T01:32:42;1.77;;;1.10;;
45686;SDS011;31399;51.176;7.776;2023-05-07T01:35:12;2.88;;;1.10;;
45686;SDS011;31399;51.176;7.776;2023-05-07T01:37:49;2.58;;;1.27;;
45686;SDS011;31399;51.176;7.776;2023-05-07T01:40:16;5.72;;;2.05;;
45686;SDS011;31399;51.176;7.776;2023-05-07T01:42:43;16.17;;;2.30;;
45686;SDS011;31399;51.176;7.776;2023-05-07T01:45:10;1.80;;;1.40;;
45686;SDS011;31399;51.176;7.776;2023-05-07T01:47:37;2.10;;;1.13;;
45686;SDS011;31399;51.176;7.776;2023-05-07T01:50:06;1.88;;;1.30;;
45686;SDS011;31399;51.176;7.776;2023-05-07T01:52:36;2.65;;;1.40;;
45686;SDS011;31399;51.176;7.776;2023-05-07T01:55:04;4.80;;;1.73;;
45686;SDS011;31399;51.176;7.776;2023-05-07T01:57:32;2.70;;;1.20;;
45686;SDS011;31399;51.176;7.776;2023-05-07T01:59:59;3.10;;;1.20;;
45686;SDS011;31399;51.176;7.776;2023-05-07T02:02:26;2.78;;;1.25;;
45686;SDS011;31399;51.176;7.776;2023-05-07T02:04:53;2.25;;;1.55;;
45686;SDS011;31399;51.176;7.776;2023-05-07T02:07:19;1.92;;;1.13;;
45686;SDS011;31399;51.176;7.776;2023-05-07T02:09:46;2.55;;;1.40;;
45686;SDS011;31399;51.176;7.776;2023-05-07T02:12:13;2.00;;;1.20;;
45686;SDS011;31399;51.176;7.776;2023-05-07T02:14:40;3.47;;;1.00;;
45686;SDS011;31399;51.176;7.776;2023-05-07T02:17:07;2.95;;;1.10;;
45686;SDS011;31399;51.176;7.776;2023-05-07T02:19:33;2.13;;;1.33;;
45686;SDS011;31399;51.176;7.776;2023-05-07T02:22:01;2.40;;;1.13;;
45686;SDS011;31399;51.176;7.776;2023-05-07T02:24:28;2.58;;;1.15;;
45686;SDS011;31399;51.176;7.776;2023-05-07T02:26:54;5.85;;;1.30;;
45686;SDS011;31399;51.176;7.776;2023-05-07T02:29:21;2.70;;;1.52;;
45686;SDS011;31399;51.176;7.776;2023-05-07T02:31:48;2.00;;;1.40;;
45686;SDS011;31399;51.176;7.776;2023-05-07T02:34:17;3.40;;;1.77;;
45686;SDS011;31399;51.176;7.776;2023-05-07T02:36:44;2.45;;;1.58;;
45686;SDS011;31399;51.176;7.776;2023-05-07T02:39:11;2.83;;;1.25;;
45686;SDS011;31399;51.176;7.776;2023-05-07T02:41:38;4.82;;;1.55;;
45686;SDS011;31399;51.176;7.776;2023-05-07T02:44:05;2.17;;;1.38;;
45686;SDS011;31399;51.176;7.776;2023-05-07T02:46:32;2.75;;;1.45;;
45686;SDS011;31399;51.176;7.776;2023-05-07T02:48:59;3.55;;;1.30;;
45686;SDS011;31399;51.176;7.776;2023-05-07T02:51:26;1.58;;;1.23;;
45686;SDS011;31399;51.176;7.776;2023-05-07T02:53:53;3.80;;;1.10;;
45686;SDS011;31399;51.176;7.776;2023-05-07T02:56:20;2.28;;;1.00;;
45686;SDS011;31399;51.176;7.776;2023-05-07T02:58:47;4.40;;;1.55;;
45686;SDS011;31399;51.176;7.776;2023-05-07T03:01:14;2.92;;;0.90;;
45686;SDS011;31399;51.176;7.776;2023-05-07T03:03:41;2.63;;;0.98;;
45686;SDS011;31399;51.176;7.776;2023-05-07T03:06:08;1.67;;;1.20;;
45686;SDS011;31399;51.176;7.776;2023-05-07T03:08:34;3.45;;;1.58;;
45686;SDS011;31399;51.176;7.776;2023-05-07T03:11:02;4.40;;;1.95;;
45686;SDS011;31399;51.176;7.776;2023-05-07T03:13:29;1.73;;;0.93;;
45686;SDS011;31399;51.176;7.776;2023-05-07T03:15:56;4.10;;;1.40;;
45686;SDS011;31399;51.176;7.776;2023-05-07T03:18:23;3.72;;;1.65;;
45686;SDS011;31399;51.176;7.776;2023-05-07T03:20:51;2.58;;;1.42;;
45686;SDS011;31399;51.176;7.776;2023-05-07T03:23:18;7.85;;;2.10;;
45686;SDS011;31399;51.176;7.776;2023-05-07T03:25:45;3.90;;;1.90;;
45686;SDS011;31399;51.176;7.776;2023-05-07T03:28:11;4.50;;;2.00;;
45686;SDS011;31399;51.176;7.776;2023-05-07T03:30:38;2.38;;;1.70;;
45686;SDS011;31399;51.176;7.776;2023-05-07T03:33:05;4.53;;;1.58;;
45686;SDS011;31399;51.176;7.776;2023-05-07T03:35:32;3.88;;;1.50;;
45686;SDS011;31399;51.176;7.776;2023-05-07T03:37:59;4.07;;;1.63;;
45686;SDS011;31399;51.176;7.776;2023-05-07T03:40:25;1.48;;;1.17;;
45686;SDS011;31399;51.176;7.776;2023-05-07T03:42:52;3.30;;;1.50;;
45686;SDS011;31399;51.176;7.776;2023-05-07T03:45:19;2.25;;;1.30;;
45686;SDS011;31399;51.176;7.776;2023-05-07T03:47:46;4.20;;;1.40;;
45686;SDS011;31399;51.176;7.776;2023-05-07T03:50:13;2.45;;;1.23;;
45686;SDS011;31399;51.176;7.776;2023-05-07T03:52:40;2.00;;;1.00;;
45686;SDS011;31399;51.176;7.776;2023-05-07T03:55:07;2.95;;;1.40;;
45686;SDS011;31399;51.176;7.776;2023-05-07T03:57:34;1.52;;;1.40;;
45686;SDS011;31399;51.176;7.776;2023-05-07T04:00:01;6.50;;;1.60;;
45686;SDS011;31399;51.176;7.776;2023-05-07T04:02:28;2.83;;;1.60;;
45686;SDS011;31399;51.176;7.776;2023-05-07T04:04:56;1.92;;;1.52;;
45686;SDS011;31399;51.176;7.776;2023-05-07T04:07:23;1.92;;;1.27;;
45686;SDS011;31399;51.176;7.776;2023-05-07T04:09:49;1.80;;;1.30;;
45686;SDS011;31399;51.176;7.776;2023-05-07T04:12:16;2.17;;;1.50;;
45686;SDS011;31399;51.176;7.776;2023-05-07T04:14:43;9.73;;;1.70;;
45686;SDS011;31399;51.176;7.776;2023-05-07T04:17:10;1.45;;;1.20;;
45686;SDS011;31399;51.176;7.776;2023-05-07T04:19:37;3.10;;;1.50;;
45686;SDS011;31399;51.176;7.776;2023-05-07T04:22:03;2.78;;;1.60;;
45686;SDS011;31399;51.176;7.776;2023-05-07T04:24:31;3.42;;;1.77;;
45686;SDS011;31399;51.176;7.776;2023-05-07T04:26:59;4.18;;;1.50;;
45686;SDS011;31399;51.176;7.776;2023-05-07T04:29:25;2.00;;;1.38;;
45686;SDS011;31399;51.176;7.776;2023-05-07T04:31:53;4.22;;;1.80;;
45686;SDS011;31399;51.176;7.776;2023-05-07T04:34:22;4.53;;;1.70;;
45686;SDS011;31399;51.176;7.776;2023-05-07T04:36:49;2.97;;;1.30;;
45686;SDS011;31399;51.176;7.776;2023-05-07T04:39:16;3.90;;;1.70;;
45686;SDS011;31399;51.176;7.776;2023-05-07T04:41:43;2.90;;;1.30;;
45686;SDS011;31399;51.176;7.776;2023-05-07T04:44:10;5.45;;;1.42;;
45686;SDS011;31399;51.176;7.776;2023-05-07T04:46:37;1.88;;;1.52;;
45686;SDS011;31399;51.176;7.776;2023-05-07T04:49:04;2.83;;;1.58;;
45686;SDS011;31399;51.176;7.776;2023-05-07T04:51:32;2.80;;;1.30;;
45686;SDS011;31399;51.176;7.776;2023-05-07T04:53:58;3.33;;;1.50;;
45686;SDS011;31399;51.176;7.776;2023-05-07T04:56:27;2.15;;;1.25;;
45686;SDS011;31399;51.176;7.776;2023-05-07T04:58:55;2.53;;;1.20;;
45686;SDS011;31399;51.176;7.776;2023-05-07T05:01:22;2.70;;;1.05;;
45686;SDS011;31399;51.176;7.776;2023-05-07T05:03:49;4.00;;;1.77;;
45686;SDS011;31399;51.176;7.776;2023-05-07T05:06:16;6.00;;;1.45;;
45686;SDS011;31399;51.176;7.776;2023-05-07T05:08:43;2.58;;;1.48;;
45686;SDS011;31399;51.176;7.776;2023-05-07T05:11:09;7.15;;;2.00;;
45686;SDS011;31399;51.176;7.776;2023-05-07T05:13:36;2.88;;;1.80;;
45686;SDS011;31399;51.176;7.776;2023-05-07T05:16:03;8.80;;;2.03;;
45686;SDS011;31399;51.176;7.776;2023-05-07T05:18:30;2.30;;;1.73;;
45686;SDS011;31399;51.176;7.776;2023-05-07T05:20:57;2.50;;;1.65;;
45686;SDS011;31399;51.176;7.776;2023-05-07T05:23:24;1.63;;;1.50;;
45686;SDS011;31399;51.176;7.776;2023-05-07T05:25:54;2.35;;;1.80;;
45686;SDS011;31399;51.176;7.776;2023-05-07T05:28:22;2.35;;;2.10;;
45686;SDS011;31399;51.176;7.776;2023-05-07T05:30:49;2.30;;;1.90;;
45686;SDS011;31399;51.176;7.776;2023-05-07T05:33:16;3.25;;;2.35;;
45686;SDS011;31399;51.176;7.776;2023-05-07T05:35:43;2.55;;;1.80;;
45686;SDS011;31399;51.176;7.776;2023-05-07T05:38:10;3.92;;;1.55;;
45686;SDS011;31399;51.176;7.776;2023-05-07T05:40:37;3.70;;;1.92;;
45686;SDS011;31399;51.176;7.776;2023-05-07T05:43:03;5.60;;;2.05;;
45686;SDS011;31399;51.176;7.776;2023-05-07T05:45:30;3.40;;;2.00;;
45686;SDS011;31399;51.176;7.776;2023-05-07T05:47:57;2.97;;;1.98;;
45686;SDS011;31399;51.176;7.776;2023-05-07T05:50:24;3.53;;;1.88;;
45686;SDS011;31399;51.176;7.776;2023-05-07T05:52:51;2.55;;;1.83;;
45686;SDS011;31399;51.176;7.776;2023-05-07T05:55:18;3.88;;;1.58;;
45686;SDS011;31399;51.176;7.776;2023-05-07T05:57:44;5.55;;;1.63;;
45686;SDS011;31399;51.176;7.776;2023-05-07T06:00:12;1.80;;;1.45;;
45686;SDS011;31399;51.176;7.776;2023-05-07T06:02:39;5.45;;;2.78;;
45686;SDS011;31399;51.176;7.776;2023-05-07T06:05:07;2.40;;;1.55;;
45686;SDS011;31399;51.176;7.776;2023-05-07T06:07:34;2.70;;;1.90;;
45686;SDS011;31399;51.176;7.776;2023-05-07T06:10:01;1.85;;;1.60;;
45686;SDS011;31399;51.176;7.776;2023-05-07T06:12:28;2.97;;;2.25;;
45686;SDS011;31399;51.176;7.776;2023-05-07T06:14:54;3.28;;;1.83;;
45686;SDS011;31399;51.176;7.776;2023-05-07T06:17:21;3.78;;;1.35;;
45686;SDS011;31399;51.176;7.776;2023-05-07T06:19:48;3.90;;;1.75;;
45686;SDS011;31399;51.176;7.776;2023-05-07T06:22:15;2.35;;;1.45;;
45686;SDS011;31399;51.176;7.776;2023-05-07T06:24:41;3.08;;;1.70;;
45686;SDS011;31399;51.176;7.776;2023-05-07T06:27:09;3.28;;;1.45;;
45686;SDS011;31399;51.176;7.776;2023-05-07T06:29:36;2.33;;;1.40;;
45686;SDS011;31399;51.176;7.776;2023-05-07T06:32:10;2.78;;;1.48;;
45686;SDS011;31399;51.176;7.776;2023-05-07T06:34:38;1.65;;;1.25;;
45686;SDS011;31399;51.176;7.776;2023-05-07T06:37:06;2.25;;;1.58;;
45686;SDS011;31399;51.176;7.776;2023-05-07T06:39:33;4.15;;;1.80;;
45686;SDS011;31399;51.176;7.776;2023-05-07T06:42:00;3.65;;;1.90;;
45686;SDS011;31399;51.176;7.776;2023-05-07T06:44:28;3.50;;;1.88;;
45686;SDS011;31399;51.176;7.776;2023-05-07T06:46:55;1.88;;;1.58;;
45686;SDS011;31399;51.176;7.776;2023-05-07T06:49:21;2.00;;;1.67;;
45686;SDS011;31399;51.176;7.776;2023-05-07T06:51:48;4.03;;;1.50;;
45686;SDS011;31399;51.176;7.776;2023-05-07T06:54:15;5.35;;;1.88;;
45686;SDS011;31399;51.176;7.776;2023-05-07T06:56:42;3.63;;;1.58;;
45686;SDS011;31399;51.176;7.776;2023-05-07T06:59:09;2.33;;;1.80;;
45686;SDS011;31399;51.176;7.776;2023-05-07T07:01:36;3.15;;;1.50;;
45686;SDS011;31399;51.176;7.776;2023-05-07T07:04:03;1.90;;;1.42;;
45686;SDS011;31399;51.176;7.776;2023-05-07T07:06:30;1.83;;;1.67;;
45686;SDS011;31399;51.176;7.776;2023-05-07T07:08:58;2.45;;;1.50;;
45686;SDS011;31399;51.176;7.776;2023-05-07T07:11:25;3.92;;;1.80;;
45686;SDS011;31399;51.176;7.776;2023-05-07T07:13:52;2.33;;;1.10;;
45686;SDS011;31399;51.176;7.776;2023-05-07T07:16:21;1.65;;;1.10;;
45686;SDS011;31399;51.176;7.776;2023-05-07T07:18:48;2.40;;;1.20;;
45686;SDS011;31399;51.176;7.776;2023-05-07T07:21:15;2.90;;;1.52;;
45686;SDS011;31399;51.176;7.776;2023-05-07T07:23:41;1.52;;;1.42;;
45686;SDS011;31399;51.176;7.776;2023-05-07T07:26:08;7.22;;;1.27;;
45686;SDS011;31399;51.176;7.776;2023-05-07T07:28:35;3.13;;;1.48;;
45686;SDS011;31399;51.176;7.776;2023-05-07T07:31:10;2.88;;;1.58;;
45686;SDS011;31399;51.176;7.776;2023-05-07T07:33:37;4.85;;;1.15;;
45686;SDS011;31399;51.176;7.776;2023-05-07T07:36:05;7.32;;;1.50;;
45686;SDS011;31399;51.176;7.776;2023-05-07T07:38:33;2.15;;;1.17;;
45686;SDS011;31399;51.176;7.776;2023-05-07T07:41:00;1.90;;;1.23;;
45686;SDS011;31399;51.176;7.776;2023-05-07T07:43:27;3.03;;;1.23;;
45686;SDS011;31399;51.176;7.776;2023-05-07T07:45:55;3.03;;;1.20;;
45686;SDS011;31399;51.176;7.776;2023-05-07T07:48:22;1.58;;;1.40;;
45686;SDS011;31399;51.176;7.776;2023-05-07T07:50:49;1.50;;;1.20;;
45686;SDS011;31399;51.176;7.776;2023-05-07T07:53:19;2.15;;;1.52;;
45686;SDS011;31399;51.176;7.776;2023-05-07T07:55:46;1.83;;;1.63;;
45686;SDS011;31399;51.176;7.776;2023-05-07T07:58:13;1.70;;;1.15;;
45686;SDS011;31399;51.176;7.776;2023-05-07T08:00:40;2.42;;;1.10;;
45686;SDS011;31399;51.176;7.776;2023-05-07T08:03:09;3.70;;;1.45;;
45686;SDS011;31399;51.176;7.776;2023-05-07T08:05:40;3.97;;;1.40;;
45686;SDS011;31399;51.176;7.776;2023-05-07T08:08:08;3.80;;;1.73;;
45686;SDS011;31399;51.176;7.776;2023-05-07T08:10:35;2.28;;;1.35;;
45686;SDS011;31399;51.176;7.776;2023-05-07T08:13:05;2.17;;;1.33;;
45686;SDS011;31399;51.176;7.776;2023-05-07T08:15:33;4.45;;;1.63;;
45686;SDS011;31399;51.176;7.776;2023-05-07T08:18:02;1.38;;;1.10;;
45686;SDS011;31399;51.176;7.776;2023-05-07T08:20:29;4.50;;;1.25;;
45686;SDS011;31399;51.176;7.776;2023-05-07T08:22:56;2.42;;;1.10;;
45686;SDS011;31399;51.176;7.776;2023-05-07T08:25:24;2.95;;;1.60;;
45686;SDS011;31399;51.176;7.776;2023-05-07T08:27:52;5.43;;;1.30;;
45686;SDS011;31399;51.176;7.776;2023-05-07T08:30:19;4.28;;;1.80;;
45686;SDS011;31399;51.176;7.776;2023-05-07T08:32:46;2.67;;;1.65;;
45686;SDS011;31399;51.176;7.776;2023-05-07T08:35:13;3.45;;;1.23;;
45686;SDS011;31399;51.176;7.776;2023-05-07T08:37:40;2.08;;;1.60;;
45686;SDS011;31399;51.176;7.776;2023-05-07T08:40:07;2.97;;;1.48;;
45686;SDS011;31399;51.176;7.776;2023-05-07T08:42:38;2.45;;;1.50;;
45686;SDS011;31399;51.176;7.776;2023-05-07T08:45:10;3.33;;;1.80;;
45686;SDS011;31399;51.176;7.776;2023-05-07T08:47:42;2.63;;;1.55;;
45686;SDS011;31399;51.176;7.776;2023-05-07T08:50:13;2.20;;;1.50;;
45686;SDS011;31399;51.176;7.776;2023-05-07T08:52:40;7.20;;;1.52;;
45686;SDS011;31399;51.176;7.776;2023-05-07T08:55:08;1.77;;;1.55;;
45686;SDS011;31399;51.176;7.776;2023-05-07T08:57:36;9.95;;;1.52;;
45686;SDS011;31399;51.176;7.776;2023-05-07T09:00:06;4.75;;;1.60;;
45686;SDS011;31399;51.176;7.776;2023-05-07T09:02:37;2.75;;;1.48;;
45686;SDS011;31399;51.176;7.776;2023-05-07T09:05:04;1.40;;;1.13;;
45686;SDS011;31399;51.176;7.776;2023-05-07T09:07:31;2.30;;;1.00;;
45686;SDS011;31399;51.176;7.776;2023-05-07T09:10:00;2.88;;;1.60;;
45686;SDS011;31399;51.176;7.776;2023-05-07T09:12:28;1.52;;;1.10;;
45686;SDS011;31399;51.176;7.776;2023-05-07T09:14:55;2.40;;;1.20;;
45686;SDS011;31399;51.176;7.776;2023-05-07T09:17:22;1.95;;;1.10;;
45686;SDS011;31399;51.176;7.776;2023-05-07T09:19:49;2.42;;;1.52;;
45686;SDS011;31399;51.176;7.776;2023-05-07T09:22:17;4.95;;;1.08;;
45686;SDS011;31399;51.176;7.776;2023-05-07T09:24:48;3.00;;;1.20;;
45686;SDS011;31399;51.176;7.776;2023-05-07T09:27:18;4.25;;;1.20;;
45686;SDS011;31399;51.176;7.776;2023-05-07T09:29:45;2.00;;;1.13;;
45686;SDS011;31399;51.176;7.776;2023-05-07T09:32:12;2.40;;;1.15;;
45686;SDS011;31399;51.176;7.776;2023-05-07T09:34:39;3.97;;;1.20;;
45686;SDS011;31399;51.176;7.776;2023-05-07T09:37:08;5.55;;;1.00;;
45686;SDS011;31399;51.176;7.776;2023-05-07T09:39:42;3.72;;;1.10;;
45686;SDS011;31399;51.176;7.776;2023-05-07T09:42:09;2.08;;;1.02;;
45686;SDS011;31399;51.176;7.776;2023-05-07T09:44:38;2.78;;;1.25;;
45686;SDS011;31399;51.176;7.776;2023-05-07T09:47:05;2.20;;;0.80;;
45686;SDS011;31399;51.176;7.776;2023-05-07T09:49:36;2.65;;;0.90;;
45686;SDS011;31399;51.176;7.776;2023-05-07T09:52:05;1.55;;;0.70;;
45686;SDS011;31399;51.176;7.776;2023-05-07T09:54:32;3.63;;;0.73;;
45686;SDS011;31399;51.176;7.776;2023-05-07T09:57:01;1.60;;;0.60;;
45686;SDS011;31399;51.176;7.776;2023-05-07T09:59:29;1.65;;;0.80;;
45686;SDS011;31399;51.176;7.776;2023-05-07T10:01:58;1.38;;;0.70;;
45686;SDS011;31399;51.176;7.776;2023-05-07T10:04:30;3.45;;;1.00;;
45686;SDS011;31399;51.176;7.776;2023-05-07T10:06:58;1.35;;;0.80;;
45686;SDS011;31399;51.176;7.776;2023-05-07T10:09:25;3.22;;;1.25;;
45686;SDS011;31399;51.176;7.776;2023-05-07T10:11:53;1.98;;;0.90;;
45686;SDS011;31399;51.176;7.776;2023-05-07T10:14:20;2.25;;;0.75;;
45686;SDS011;31399;51.176;7.776;2023-05-07T10:16:47;2.67;;;0.85;;
45686;SDS011;31399;51.176;7.776;2023-05-07T10:19:14;1.17;;;0.73;;
45686;SDS011;31399;51.176;7.776;2023-05-07T10:21:47;2.05;;;0.77;;
45686;SDS011;31399;51.176;7.776;2023-05-07T10:24:36;2.65;;;0.77;;
45686;SDS011;31399;51.176;7.776;2023-05-07T10:27:04;1.17;;;0.70;;
45686;SDS011;31399;51.176;7.776;2023-05-07T10:32:45;2.65;;;0.90;;
45686;SDS011;31399;51.176;7.776;2023-05-07T10:35:19;2.58;;;0.90;;
45686;SDS011;31399;51.176;7.776;2023-05-07T10:37:47;2.78;;;0.70;;
45686;SDS011;31399;51.176;7.776;2023-05-07T10:40:14;4.00;;;0.90;;
45686;SDS011;31399;51.176;7.776;2023-05-07T10:42:57;0.75;;;0.60;;
45686;SDS011;31399;51.176;7.776;2023-05-07T10:45:28;4.35;;;0.85;;
45686;SDS011;31399;51.176;7.776;2023-05-07T10:48:11;1.98;;;0.82;;
45686;SDS011;31399;51.176;7.776;2023-05-07T10:51:18;1.58;;;1.02;;
45686;SDS011;31399;51.176;7.776;2023-05-07T10:53:45;4.15;;;0.90;;
45686;SDS011;31399;51.176;7.776;2023-05-07T10:58:45;3.95;;;1.45;;
45686;SDS011;31399;51.176;7.776;2023-05-07T11:01:12;3.85;;;1.33;;
45686;SDS011;31399;51.176;7.776;2023-05-07T11:04:12;1.92;;;1.55;;
45686;SDS011;31399;51.176;7.776;2023-05-07T11:06:40;1.63;;;1.52;;
45686;SDS011;31399;51.176;7.776;2023-05-07T11:09:07;3.15;;;1.17;;
45686;SDS011;31399;51.176;7.776;2023-05-07T11:11:47;2.20;;;1.67;;
45686;SDS011;31399;51.176;7.776;2023-05-07T11:14:14;2.58;;;1.30;;
45686;SDS011;31399;51.176;7.776;2023-05-07T11:17:07;2.25;;;1.40;;
45686;SDS011;31399;51.176;7.776;2023-05-07T11:19:48;2.15;;;1.48;;
45686;SDS011;31399;51.176;7.776;2023-05-07T11:24:59;4.68;;;1.60;;
45686;SDS011;31399;51.176;7.776;2023-05-07T11:27:27;3.17;;;1.90;;
45686;SDS011;31399;51.176;7.776;2023-05-07T11:29:54;1.77;;;1.38;;
45686;SDS011;31399;51.176;7.776;2023-05-07T11:32:24;1.52;;;1.30;;
45686;SDS011;31399;51.176;7.776;2023-05-07T11:34:56;3.60;;;1.67;;
45686;SDS011;31399;51.176;7.776;2023-05-07T11:37:25;1.92;;;1.33;;
45686;SDS011;31399;51.176;7.776;2023-05-07T11:40:04;1.85;;;1.20;;
45686;SDS011;31399;51.176;7.776;2023-05-07T11:42:34;2.47;;;1.40;;
45686;SDS011;31399;51.176;7.776;2023-05-07T11:45:04;2.55;;;1.13;;
45686;SDS011;31399;51.176;7.776;2023-05-07T11:47:33;1.45;;;1.30;;
45686;SDS011;31399;51.176;7.776;2023-05-07T11:50:04;2.97;;;0.90;;
45686;SDS011;31399;51.176;7.776;2023-05-07T11:52:34;0.82;;;0.63;;
45686;SDS011;31399;51.176;7.776;2023-05-07T11:55:01;1.48;;;0.60;;
45686;SDS011;31399;51.176;7.776;2023-05-07T11:57:32;0.70;;;0.50;;
45686;SDS011;31399;51.176;7.776;2023-05-07T12:00:00;1.30;;;0.70;;
45686;SDS011;31399;51.176;7.776;2023-05-07T12:02:28;1.65;;;0.82;;
45686;SDS011;31399;51.176;7.776;2023-05-07T12:04:56;1.40;;;0.70;;
45686;SDS011;31399;51.176;7.776;2023-05-07T12:07:23;1.45;;;0.50;;
45686;SDS011;31399;51.176;7.776;2023-05-07T12:09:51;1.83;;;0.82;;
45686;SDS011;31399;51.176;7.776;2023-05-07T12:12:18;2.85;;;1.00;;
45686;SDS011;31399;51.176;7.776;2023-05-07T12:14:45;2.13;;;0.82;;
45686;SDS011;31399;51.176;7.776;2023-05-07T12:17:13;2.00;;;1.25;;
45686;SDS011;31399;51.176;7.776;2023-05-07T12:19:41;3.00;;;1.15;;
45686;SDS011;31399;51.176;7.776;2023-05-07T12:22:09;3.15;;;1.13;;
45686;SDS011;31399;51.176;7.776;2023-05-07T12:24:49;2.35;;;1.15;;
45686;SDS011;31399;51.176;7.776;2023-05-07T12:27:17;2.42;;;1.08;;
45686;SDS011;31399;51.176;7.776;2023-05-07T12:29:47;4.35;;;1.05;;
45686;SDS011;31399;51.176;7.776;2023-05-07T12:32:15;1.70;;;1.30;;
45686;SDS011;31399;51.176;7.776;2023-05-07T12:34:45;3.55;;;1.15;;
45686;SDS011;31399;51.176;7.776;2023-05-07T12:37:12;4.88;;;1.52;;
45686;SDS011;31399;51.176;7.776;2023-05-07T12:39:49;1.50;;;1.30;;
45686;SDS011;31399;51.176;7.776;2023-05-07T12:42:32;2.40;;;1.60;;
45686;SDS011;31399;51.176;7.776;2023-05-07T12:44:59;3.33;;;1.30;;
45686;SDS011;31399;51.176;7.776;2023-05-07T12:47:26;5.00;;;1.48;;
45686;SDS011;31399;51.176;7.776;2023-05-07T12:49:54;2.33;;;1.50;;
45686;SDS011;31399;51.176;7.776;2023-05-07T12:52:21;2.38;;;1.45;;
45686;SDS011;31399;51.176;7.776;2023-05-07T12:54:47;3.00;;;1.80;;
45686;SDS011;31399;51.176;7.776;2023-05-07T12:57:14;1.75;;;1.40;;
45686;SDS011;31399;51.176;7.776;2023-05-07T12:59:45;2.13;;;1.67;;
45686;SDS011;31399;51.176;7.776;2023-05-07T13:02:12;3.38;;;1.35;;
45686;SDS011;31399;51.176;7.776;2023-05-07T13:04:39;4.80;;;1.80;;
45686;SDS011;31399;51.176;7.776;2023-05-07T13:07:06;3.85;;;2.05;;
45686;SDS011;31399;51.176;7.776;2023-05-07T13:09:32;4.85;;;1.80;;
45686;SDS011;31399;51.176;7.776;2023-05-07T13:11:59;3.70;;;1.63;;
45686;SDS011;31399;51.176;7.776;2023-05-07T13:14:27;2.65;;;1.77;;
45686;SDS011;31399;51.176;7.776;2023-05-07T13:16:54;2.25;;;1.83;;
45686;SDS011;31399;51.176;7.776;2023-05-07T13:19:21;6.72;;;2.13;;
45686;SDS011;31399;51.176;7.776;2023-05-07T13:21:48;2.58;;;1.70;;
45686;SDS011;31399;51.176;7.776;2023-05-07T13:24:16;2.20;;;1.40;;
45686;SDS011;31399;51.176;7.776;2023-05-07T13:26:43;2.17;;;1.20;;
45686;SDS011;31399;51.176;7.776;2023-05-07T13:29:11;3.10;;;1.20;;
45686;SDS011;31399;51.176;7.776;2023-05-07T13:31:38;2.60;;;1.63;;
45686;SDS011;31399;51.176;7.776;2023-05-07T13:34:09;4.22;;;1.55;;
45686;SDS011;31399;51.176;7.776;2023-05-07T13:36:36;2.30;;;1.27;;
45686;SDS011;31399;51.176;7.776;2023-05-07T13:39:06;1.95;;;1.30;;
45686;SDS011;31399;51.176;7.776;2023-05-07T13:41:33;2.28;;;1.77;;
45686;SDS011;31399;51.176;7.776;2023-05-07T13:44:00;3.42;;;1.83;;
45686;SDS011;31399;51.176;7.776;2023-05-07T13:46:27;4.25;;;1.90;;
45686;SDS011;31399;51.176;7.776;2023-05-07T13:48:54;4.15;;;1.70;;
45686;SDS011;31399;51.176;7.776;2023-05-07T13:51:21;2.38;;;1.67;;
45686;SDS011;31399;51.176;7.776;2023-05-07T13:53:48;2.33;;;2.13;;
45686;SDS011;31399;51.176;7.776;2023-05-07T13:56:18;2.00;;;1.65;;
45686;SDS011;31399;51.176;7.776;2023-05-07T13:58:47;7.60;;;1.80;;
45686;SDS011;31399;51.176;7.776;2023-05-07T14:01:33;3.35;;;1.95;;
45686;SDS011;31399;51.176;7.776;2023-05-07T14:04:00;2.30;;;1.48;;
45686;SDS011;31399;51.176;7.776;2023-05-07T14:06:28;2.58;;;1.90;;
45686;SDS011;31399;51.176;7.776;2023-05-07T14:08:54;1.65;;;1.50;;
45686;SDS011;31399;51.176;7.776;2023-05-07T14:11:24;1.73;;;1.40;;
45686;SDS011;31399;51.176;7.776;2023-05-07T14:13:51;1.60;;;1.30;;
45686;SDS011;31399;51.176;7.776;2023-05-07T14:16:18;3.42;;;1.67;;
45686;SDS011;31399;51.176;7.776;2023-05-07T14:18:45;2.00;;;1.58;;
45686;SDS011;31399;51.176;7.776;2023-05-07T14:21:12;2.97;;;1.77;;
45686;SDS011;31399;51.176;7.776;2023-05-07T14:23:39;2.65;;;1.95;;
45686;SDS011;31399;51.176;7.776;2023-05-07T14:26:06;2.20;;;2.00;;
45686;SDS011;31399;51.176;7.776;2023-05-07T14:28:33;5.05;;;1.70;;
45686;SDS011;31399;51.176;7.776;2023-05-07T14:31:00;3.08;;;1.55;;
45686;SDS011;31399;51.176;7.776;2023-05-07T14:33:27;3.90;;;2.00;;
45686;SDS011;31399;51.176;7.776;2023-05-07T14:35:54;3.20;;;1.98;;
45686;SDS011;31399;51.176;7.776;2023-05-07T14:38:21;3.58;;;2.03;;
45686;SDS011;31399;51.176;7.776;2023-05-07T14:40:48;2.17;;;1.95;;
45686;SDS011;31399;51.176;7.776;2023-05-07T14:43:15;3.58;;;2.17;;
45686;SDS011;31399;51.176;7.776;2023-05-07T14:45:42;2.22;;;1.88;;
45686;SDS011;31399;51.176;7.776;2023-05-07T14:48:09;3.28;;;2.25;;
45686;SDS011;31399;51.176;7.776;2023-05-07T14:50:38;4.22;;;2.33;;
45686;SDS011;31399;51.176;7.776;2023-05-07T14:53:06;3.88;;;2.70;;
45686;SDS011;31399;51.176;7.776;2023-05-07T14:55:33;3.88;;;2.30;;
45686;SDS011;31399;51.176;7.776;2023-05-07T14:58:01;6.65;;;2.63;;
45686;SDS011;31399;51.176;7.776;2023-05-07T15:00:28;5.82;;;3.33;;
45686;SDS011;31399;51.176;7.776;2023-05-07T15:02:56;4.70;;;3.50;;